createdAt,value
2019-04-28T00:02:22.462Z,7.48
2019-04-28T00:07:27.934Z,7.50
2019-04-28T00:12:33.337Z,7.49
2019-04-28T00:17:39.180Z,7.46
2019-04-28T00:22:53.138Z,7.39
2019-04-28T00:27:58.558Z,7.29
2019-04-28T00:33:04.105Z,7.29
2019-04-28T00:38:11.515Z,7.26
2019-04-28T00:43:17.828Z,7.34
2019-04-28T00:48:23.796Z,7.31
2019-04-28T00:53:31.088Z,7.19
2019-04-28T00:58:36.385Z,7.19
2019-04-28T01:03:42.132Z,7.17
2019-04-28T01:08:47.561Z,7.03
2019-04-28T01:13:52.845Z,7.16
2019-04-28T01:19:06.543Z,7.13
2019-04-28T01:24:13.284Z,7.10
2019-04-28T01:29:19.518Z,7.02
2019-04-28T01:34:25.220Z,7.03
2019-04-28T01:39:30.543Z,7.08
2019-04-28T01:44:35.883Z,7.00
2019-04-28T01:49:41.760Z,6.98
2019-04-28T01:54:47.040Z,6.97
2019-04-28T01:59:52.252Z,6.94
2019-04-28T02:04:59.691Z,6.99
2019-04-28T02:10:05.321Z,7.01
2019-04-28T02:15:10.956Z,7.01
2019-04-28T02:20:20.162Z,7.00
2019-04-28T02:25:25.547Z,7.00
2019-04-28T02:30:42.347Z,7.08
2019-04-28T02:35:38.275Z,7.01
2019-04-28T02:40:43.612Z,6.91
2019-04-28T02:45:52.949Z,6.77
2019-04-28T02:51:02.273Z,6.69
2019-04-28T02:56:11.049Z,6.52
2019-04-28T03:01:22.844Z,6.47
2019-04-28T03:06:22.560Z,6.50
2019-04-28T03:11:27.800Z,6.51
2019-04-28T03:16:33.072Z,6.54
2019-04-28T03:21:41.382Z,6.59
2019-04-28T03:26:53.568Z,6.73
2019-04-28T03:32:28.082Z,6.73
2019-04-28T03:37:14.986Z,6.77
2019-04-28T03:42:21.922Z,6.77
2019-04-28T03:47:27.421Z,6.74
2019-04-28T03:52:32.996Z,6.76
2019-04-28T03:57:41.007Z,6.76
2019-04-28T04:02:45.457Z,6.76
2019-04-28T04:07:50.881Z,6.77
2019-04-28T04:13:07.643Z,6.76
2019-04-28T04:18:17.965Z,6.74
2019-04-28T04:23:26.028Z,6.73
2019-04-28T04:28:31.398Z,6.72
2019-04-28T04:33:36.757Z,6.76
2019-04-28T04:38:45.824Z,6.74
2019-04-28T04:43:51.260Z,6.80
2019-04-28T04:48:56.923Z,6.83
2019-04-28T04:54:02.134Z,6.85
2019-04-28T04:59:07.560Z,6.67
2019-04-28T05:04:25.179Z,6.79
2019-04-28T05:09:31.174Z,6.74
2019-04-28T05:14:37.126Z,6.86
2019-04-28T05:19:43.241Z,6.90
2019-04-28T05:25:13.743Z,6.88
2019-04-28T05:30:20.423Z,6.88
2019-04-28T05:35:25.783Z,6.95
2019-04-28T05:40:31.038Z,7.18
2019-04-28T05:45:36.754Z,7.22
2019-04-28T05:51:01.856Z,7.16
2019-04-28T05:56:15.509Z,7.34
2019-04-28T06:01:30.342Z,7.39
2019-04-28T06:06:40.498Z,7.49
2019-04-28T06:11:46.038Z,7.55
2019-04-28T06:16:51.399Z,7.81
2019-04-28T06:21:56.710Z,7.70
2019-04-28T06:27:02.996Z,7.83
2019-04-28T06:32:08.675Z,7.84
2019-04-28T06:37:14.284Z,7.73
2019-04-28T06:42:19.784Z,7.96
2019-04-28T06:47:25.117Z,8.15
2019-04-28T06:52:30.747Z,8.14
2019-04-28T06:57:36.021Z,8.32
2019-04-28T07:02:41.300Z,8.63
2019-04-28T07:07:46.615Z,8.79
2019-04-28T07:12:51.960Z,8.95
2019-04-28T07:17:57.299Z,9.28
2019-04-28T07:23:02.697Z,9.38
2019-04-28T07:28:08.069Z,9.33
2019-04-28T07:33:13.774Z,9.44
2019-04-28T07:38:19.367Z,9.39
2019-04-28T07:43:24.720Z,9.77
2019-04-28T07:48:30.151Z,9.69
2019-04-28T07:53:55.351Z,9.39
2019-04-28T07:59:00.680Z,9.52
2019-04-28T08:04:07.413Z,9.48
2019-04-28T08:09:14.906Z,9.25
2019-04-28T08:14:20.349Z,9.12
2019-04-28T08:19:25.753Z,9.10
2019-04-28T08:24:31.266Z,9.38
2019-04-28T08:29:36.615Z,9.37
2019-04-28T08:34:42.457Z,9.85
2019-04-28T08:39:47.765Z,10.00
2019-04-28T08:44:52.979Z,10.33
2019-04-28T08:49:58.506Z,10.33
2019-04-28T08:55:04.021Z,10.40
2019-04-28T09:00:11.185Z,10.22
2019-04-28T09:05:16.718Z,10.08
2019-04-28T09:10:22.498Z,10.30
2019-04-28T09:15:28.006Z,10.59
2019-04-28T09:20:33.753Z,10.96
2019-04-28T09:25:39.948Z,11.20
2019-04-28T09:30:45.589Z,10.63
2019-04-28T09:35:51.022Z,10.73
2019-04-28T09:40:56.748Z,11.07
2019-04-28T09:46:04.566Z,11.21
2019-04-28T09:51:09.948Z,11.06
2019-04-28T09:56:15.194Z,10.99
2019-04-28T10:01:20.837Z,11.30
2019-04-28T10:06:26.147Z,11.43
2019-04-28T10:11:31.814Z,11.66
2019-04-28T10:16:37.300Z,11.92
2019-04-28T10:21:43.355Z,11.87
2019-04-28T10:26:49.676Z,12.26
2019-04-28T10:31:54.902Z,12.09
2019-04-28T10:37:00.227Z,11.99
2019-04-28T10:42:06.879Z,12.32
2019-04-28T10:47:12.215Z,12.51
2019-04-28T10:52:17.482Z,12.65
2019-04-28T10:57:22.993Z,13.16
2019-04-28T11:02:28.317Z,13.58
2019-04-28T11:07:34.198Z,13.65
2019-04-28T11:12:39.935Z,14.03
2019-04-28T11:17:45.624Z,14.24
2019-04-28T11:22:51.382Z,14.75
2019-04-28T11:27:56.785Z,14.57
2019-04-28T11:33:14.972Z,14.83
2019-04-28T11:38:20.316Z,15.93
2019-04-28T11:43:25.617Z,16.04
2019-04-28T11:48:30.966Z,15.26
2019-04-28T11:53:36.519Z,15.22
2019-04-28T11:58:41.759Z,17.38
2019-04-28T12:03:48.825Z,17.07
2019-04-28T12:08:57.197Z,16.41
2019-04-28T12:14:30.406Z,17.87
2019-04-28T12:19:45.586Z,18.30
2019-04-28T12:24:50.874Z,19.88
2019-04-28T12:29:56.111Z,21.10
2019-04-28T12:35:01.501Z,20.48
2019-04-28T12:40:08.093Z,22.25
2019-04-28T12:45:13.650Z,22.54
2019-04-28T12:50:24.559Z,23.42
2019-04-28T12:55:31.082Z,19.37
2019-04-28T13:00:54.120Z,17.83
2019-04-28T13:06:05.636Z,16.88
2019-04-28T13:11:07.883Z,15.62
2019-04-28T13:16:13.290Z,15.59
2019-04-28T13:21:18.783Z,14.37
2019-04-28T13:26:24.105Z,16.49
2019-04-28T13:31:29.435Z,18.23
2019-04-28T13:36:35.047Z,19.42
2019-04-28T13:41:40.888Z,17.05
2019-04-28T13:46:46.402Z,16.15
2019-04-28T13:51:51.650Z,15.93
2019-04-28T13:56:57.004Z,15.36
2019-04-28T14:02:12.811Z,14.89
2019-04-28T14:07:18.257Z,14.96
2019-04-28T14:12:23.783Z,14.79
2019-04-28T14:17:29.568Z,14.84
2019-04-28T14:22:34.938Z,15.20
2019-04-28T14:27:40.355Z,16.01
2019-04-28T14:32:45.670Z,22.94
2019-04-28T14:37:51.029Z,25.13
2019-04-28T14:42:56.282Z,26.24
2019-04-28T14:48:02.703Z,27.93
2019-04-28T14:53:08.911Z,30.27
2019-04-28T14:58:14.555Z,32.11
2019-04-28T15:03:22.856Z,31.38
2019-04-28T15:09:02.243Z,32.02
2019-04-28T15:14:09.086Z,30.90
2019-04-28T15:19:14.481Z,31.81
2019-04-28T15:24:19.847Z,33.22
2019-04-28T15:29:25.760Z,32.04
2019-04-28T15:34:31.021Z,30.62
2019-04-28T15:39:36.668Z,31.74
2019-04-28T15:44:42.090Z,33.33
2019-04-28T15:49:47.451Z,30.80
2019-04-28T15:54:52.702Z,30.50
2019-04-28T15:59:58.352Z,24.69
2019-04-28T16:05:03.935Z,22.62
2019-04-28T16:10:10.854Z,21.16
2019-04-28T16:15:16.249Z,19.79
2019-04-28T16:20:22.011Z,18.17
2019-04-28T16:25:27.758Z,17.62
2019-04-28T16:30:33.106Z,16.70
2019-04-28T16:35:40.065Z,16.44
2019-04-28T16:40:48.191Z,15.48
2019-04-28T16:45:53.465Z,15.17
2019-04-28T16:50:58.699Z,14.58
2019-04-28T16:56:26.330Z,14.28
2019-04-28T17:01:56.603Z,13.99
2019-04-28T17:07:01.883Z,13.73
2019-04-28T17:12:07.223Z,13.56
2019-04-28T17:17:12.615Z,13.48
2019-04-28T17:22:18.920Z,13.36
2019-04-28T17:27:24.321Z,13.35
2019-04-28T17:32:30.044Z,13.33
2019-04-28T17:37:35.615Z,13.03
2019-04-28T17:42:41.028Z,12.95
2019-04-28T17:47:46.385Z,12.81
2019-04-28T17:52:51.633Z,12.59
2019-04-28T17:57:56.877Z,12.67
2019-04-28T18:03:11.909Z,12.52
2019-04-28T18:08:21.223Z,12.43
2019-04-28T18:13:24.374Z,12.16
2019-04-28T18:18:52.437Z,11.95
2019-04-28T18:23:58.060Z,11.79
2019-04-28T18:29:03.837Z,11.66
2019-04-28T18:34:40.428Z,11.52
2019-04-28T18:40:03.780Z,11.35
2019-04-28T18:45:10.773Z,11.17
2019-04-28T18:50:18.353Z,11.01
2019-04-28T18:55:24.245Z,10.89
2019-04-28T19:00:31.361Z,10.73
2019-04-28T19:05:38.925Z,10.53
2019-04-28T19:11:04.211Z,10.40
2019-04-28T19:16:32.429Z,10.29
2019-04-28T19:21:38.763Z,9.98
2019-04-28T19:26:44.247Z,9.86
2019-04-28T19:31:49.656Z,9.68
2019-04-28T19:36:55.219Z,9.57
2019-04-28T19:42:00.747Z,9.53
2019-04-28T19:47:06.361Z,9.45
2019-04-28T19:52:11.737Z,9.26
2019-04-28T19:57:26.961Z,9.11
2019-04-28T20:02:34.875Z,8.82
2019-04-28T20:07:41.012Z,8.74
2019-04-28T20:12:47.398Z,8.74
2019-04-28T20:17:52.757Z,8.65
2019-04-28T20:22:58.174Z,8.54
2019-04-28T20:28:03.607Z,8.31
2019-04-28T20:33:09.869Z,8.27
2019-04-28T20:38:24.476Z,8.13
2019-04-28T20:43:29.883Z,7.97
2019-04-28T20:48:35.377Z,7.90
2019-04-28T20:53:40.727Z,7.84
2019-04-28T20:58:46.078Z,7.81
2019-04-28T21:03:51.370Z,7.63
2019-04-28T21:08:56.914Z,7.49
2019-04-28T21:14:02.425Z,7.53
2019-04-28T21:19:07.934Z,7.55
2019-04-28T21:24:13.294Z,7.42
2019-04-28T21:29:19.998Z,7.43
2019-04-28T21:34:26.888Z,7.37
2019-04-28T21:39:32.596Z,7.29
2019-04-28T21:44:57.067Z,7.14
2019-04-28T21:50:02.404Z,7.10
2019-04-28T21:55:07.808Z,7.03
2019-04-28T22:00:14.804Z,6.87
2019-04-28T22:05:38.552Z,6.88
2019-04-28T22:10:43.815Z,6.64
2019-04-28T22:15:49.123Z,6.68
2019-04-28T22:20:54.624Z,6.80
2019-04-28T22:26:00.186Z,6.72
2019-04-28T22:31:05.557Z,6.54
2019-04-28T22:36:10.926Z,6.51
2019-04-28T22:41:16.714Z,6.42
2019-04-28T22:46:22.184Z,6.31
2019-04-28T22:51:27.714Z,6.21
2019-04-28T22:56:42.021Z,6.19
2019-04-28T23:01:57.299Z,6.27
2019-04-28T23:07:02.584Z,6.21
2019-04-28T23:12:09.643Z,6.17
2019-04-28T23:17:16.885Z,6.16
2019-04-28T23:22:46.978Z,6.07
2019-04-28T23:27:47.334Z,5.85
2019-04-28T23:32:52.667Z,5.90
2019-04-28T23:37:58.320Z,5.93
2019-04-28T23:43:07.199Z,5.81
2019-04-28T23:48:12.425Z,5.77
2019-04-28T23:53:18.574Z,5.75
